Terminal Aerodrome Forecast
Issued by NWS Springfield, MO

Home | Current Version | Previous Version | Text Only | Print | Product List | Glossary On
Versions: 1 2 3 4 5 6 7 8 9 10 11 12 13 14 15 16 17 18 19 20 21 22 23 24 25 26 27
000
FTUS43 KSGF 072000 AAA
TAFSGF
TAF AMD
KSGF 072046Z 0721/0818 34007KT 2SM -RA BR OVC003
      TEMPO 0721/0723 1SM BR
     FM072300 35007KT 3SM -SHRA BR SCT003 OVC007
     FM080800 11007KT 4SM -SHRA BR OVC007
     FM081500 15012KT 4SM -SHRA BR OVC015=

USA.gov is the U.S. government's official web portal to all federal, state and local government web resources and services.